createdAt,value
2018-09-11T00:04:05.064Z,101081.64
2018-09-11T00:09:03.603Z,101089.01
2018-09-11T00:14:00.983Z,101090.71
2018-09-11T00:18:58.367Z,101096.41
2018-09-11T00:23:55.746Z,101096.56
2018-09-11T00:28:53.188Z,101108.97
2018-09-11T00:33:50.560Z,101101.27
2018-09-11T00:38:47.944Z,101092.88
2018-09-11T00:43:45.350Z,101101.19
2018-09-11T00:48:42.712Z,101095.23
2018-09-11T00:53:40.100Z,101090.64
2018-09-11T00:58:37.506Z,101097.28
2018-09-11T01:03:34.896Z,101085.70
2018-09-11T01:08:32.311Z,101081.78
2018-09-11T01:13:29.707Z,101080.91
2018-09-11T01:18:27.191Z,101073.98
2018-09-11T01:23:24.623Z,101071.55
2018-09-11T01:28:22.011Z,101065.33
2018-09-11T01:33:19.400Z,101052.36
2018-09-11T01:38:16.904Z,101056.94
2018-09-11T01:43:14.284Z,101059.42
2018-09-11T01:48:11.698Z,101066.95
2018-09-11T01:53:09.088Z,101063.86
2018-09-11T01:58:06.498Z,101051.55
2018-09-11T02:03:03.967Z,101041.50
2018-09-11T02:08:01.363Z,101041.78
2018-09-11T02:12:58.786Z,101052.81
2018-09-11T02:17:56.226Z,101050.48
2018-09-11T02:22:53.611Z,101057.39
2018-09-11T02:27:51.834Z,101048.12
2018-09-11T02:32:49.211Z,101053.08
2018-09-11T02:37:46.576Z,101051.03
2018-09-11T02:42:43.999Z,101057.89
2018-09-11T02:47:41.379Z,101061.73
2018-09-11T02:52:38.971Z,101076.38
2018-09-11T02:57:36.423Z,101064.20
2018-09-11T03:02:33.785Z,101071.30
2018-09-11T03:07:31.187Z,101065.44
2018-09-11T03:12:28.571Z,101072.75
2018-09-11T03:17:25.939Z,101061.25
2018-09-11T03:22:23.359Z,101073.30
2018-09-11T03:27:20.745Z,101068.01
2018-09-11T03:32:18.131Z,101061.29
2018-09-11T03:37:15.523Z,101066.03
2018-09-11T03:42:12.947Z,101065.80
2018-09-11T03:47:10.354Z,101064.25
2018-09-11T03:52:07.847Z,101058.38
2018-09-11T03:57:05.339Z,101052.50
2018-09-11T04:02:02.791Z,101055.28
2018-09-11T04:07:00.435Z,101056.63
2018-09-11T04:11:57.811Z,101049.52
2018-09-11T04:16:55.195Z,101058.53
2018-09-11T04:21:52.567Z,101052.50
2018-09-11T04:26:50.010Z,101052.41
2018-09-11T04:31:47.450Z,101047.85
2018-09-11T04:36:44.851Z,101042.81
2018-09-11T04:41:42.297Z,101041.92
2018-09-11T04:46:39.700Z,101042.47
2018-09-11T04:51:37.079Z,101040.30
2018-09-11T04:56:34.514Z,101038.13
2018-09-11T05:01:31.919Z,101035.57
2018-09-11T05:06:29.291Z,101030.53
2018-09-11T05:11:26.826Z,101023.23
2018-09-11T05:16:24.211Z,101023.98
2018-09-11T05:21:21.615Z,101024.07
2018-09-11T05:26:19.025Z,101024.24
2018-09-11T05:31:16.942Z,101022.53
2018-09-11T05:36:14.331Z,101021.16
2018-09-11T05:41:11.711Z,101030.34
2018-09-11T05:46:09.147Z,101036.80
2018-09-11T05:51:06.674Z,101036.78
2018-09-11T05:56:04.071Z,101052.27
2018-09-11T06:01:01.476Z,101040.70
2018-09-11T06:05:59.175Z,101031.28
2018-09-11T06:10:56.595Z,101036.13
2018-09-11T06:15:53.970Z,101033.52
2018-09-11T06:20:51.360Z,101032.92
2018-09-11T06:25:48.780Z,101020.74
2018-09-11T06:30:46.142Z,101024.20
2018-09-11T06:35:43.532Z,101036.19
2018-09-11T06:40:40.926Z,101033.87
2018-09-11T06:45:38.491Z,101037.56
2018-09-11T06:50:35.887Z,101044.70
2018-09-11T06:55:33.295Z,101052.76
2018-09-11T07:00:30.924Z,101056.14
2018-09-11T07:05:28.325Z,101046.41
2018-09-11T07:10:26.064Z,101040.86
2018-09-11T07:15:23.455Z,101056.27
2018-09-11T07:20:21.091Z,101050.77
2018-09-11T07:25:18.292Z,101052.23
2018-09-11T07:30:15.777Z,101052.39
2018-09-11T07:35:13.143Z,101069.71
2018-09-11T07:40:11.612Z,101051.02
2018-09-11T07:45:09.076Z,101059.58
2018-09-11T07:50:06.593Z,101055.02
2018-09-11T07:55:03.994Z,101060.80
2018-09-11T08:00:01.412Z,101062.98
2018-09-11T08:04:58.904Z,101052.36
2018-09-11T08:09:57.350Z,101061.45
2018-09-11T08:14:54.771Z,101043.89
2018-09-11T08:19:52.243Z,101057.42
2018-09-11T08:24:49.566Z,101055.74
2018-09-11T08:29:46.969Z,101050.28
2018-09-11T08:34:44.412Z,101040.55
2018-09-11T08:39:51.003Z,101040.41
2018-09-11T08:44:48.414Z,101036.66
2018-09-11T08:49:45.840Z,101025.20
2018-09-11T08:54:43.239Z,101022.29
2018-09-11T08:59:40.651Z,101019.73
2018-09-11T09:04:38.056Z,101021.09
2018-09-11T09:09:37.402Z,101014.16
2018-09-11T09:14:34.839Z,101024.82
2018-09-11T09:19:32.233Z,101031.50
2018-09-11T09:24:29.623Z,101026.84
2018-09-11T09:29:27.023Z,101025.13
2018-09-11T09:34:24.423Z,101026.81
2018-09-11T09:39:38.518Z,101019.61
2018-09-11T09:44:36.644Z,101024.13
2018-09-11T09:49:34.051Z,101018.06
2018-09-11T09:54:31.439Z,101013.88
2018-09-11T09:59:28.831Z,101025.42
2018-09-11T10:04:26.242Z,101013.20
2018-09-11T10:09:34.726Z,101007.76
2018-09-11T10:14:32.186Z,101009.51
2018-09-11T10:19:29.575Z,101000.05
2018-09-11T10:24:26.959Z,101011.25
2018-09-11T10:29:24.332Z,101004.92
2018-09-11T10:34:21.774Z,101005.53
2018-09-11T10:39:32.026Z,101013.34
2018-09-11T10:44:29.489Z,101010.87
2018-09-11T10:49:26.898Z,100994.40
2018-09-11T10:54:24.276Z,100989.71
2018-09-11T10:59:21.661Z,100988.77
2018-09-11T11:04:19.137Z,100981.64
2018-09-11T11:09:18.210Z,100991.56
2018-09-11T11:14:15.647Z,100982.06
2018-09-11T11:19:13.030Z,100974.38
2018-09-11T11:24:10.430Z,100981.12
2018-09-11T11:29:07.855Z,100979.48
2018-09-11T11:34:05.432Z,100984.58
2018-09-11T11:39:07.912Z,100963.61
2018-09-11T11:44:06.431Z,100967.81
2018-09-11T11:49:04.108Z,100966.58
2018-09-11T11:54:01.504Z,100969.16
2018-09-11T11:58:58.992Z,100970.05
2018-09-11T12:03:56.378Z,100967.25
2018-09-11T12:08:53.803Z,100961.91
2018-09-11T12:13:51.440Z,100962.81
2018-09-11T12:18:48.816Z,100958.30
2018-09-11T12:23:46.217Z,100955.14
2018-09-11T12:28:47.543Z,100957.05
2018-09-11T12:33:46.182Z,100951.81
2018-09-11T12:38:44.926Z,100952.43
2018-09-11T12:43:49.973Z,100944.28
2018-09-11T12:48:49.154Z,100935.84
2018-09-11T12:53:49.547Z,100941.84
2018-09-11T12:58:48.358Z,100922.18
2018-09-11T13:03:47.522Z,100939.47
2018-09-11T13:08:48.004Z,100932.16
2018-09-11T13:13:46.018Z,100932.32
2018-09-11T13:18:44.325Z,100944.11
2018-09-11T13:23:43.142Z,100939.86
2018-09-11T13:28:40.598Z,100931.72
2018-09-11T13:33:37.985Z,100912.82
2018-09-11T13:38:35.384Z,100922.25
2018-09-11T13:43:32.743Z,100914.72
2018-09-11T13:48:30.134Z,100919.74
2018-09-11T13:53:27.507Z,100906.26
2018-09-11T13:58:24.910Z,100912.25
2018-09-11T14:03:22.308Z,100908.55
2018-09-11T14:08:19.718Z,100904.13
2018-09-11T14:13:17.107Z,100896.46
2018-09-11T14:18:14.503Z,100913.86
2018-09-11T14:23:11.887Z,100897.08
2018-09-11T14:28:09.263Z,100904.78
2018-09-11T14:33:06.668Z,100899.61
2018-09-11T14:38:04.116Z,100883.07
2018-09-11T14:43:01.543Z,100887.97
2018-09-11T14:47:58.999Z,100889.90
2018-09-11T14:52:56.379Z,100884.50
2018-09-11T14:57:53.775Z,100889.58
2018-09-11T15:02:51.191Z,100889.52
2018-09-11T15:07:48.621Z,100902.59
2018-09-11T15:12:46.011Z,100901.55
2018-09-11T15:17:43.386Z,100891.37
2018-09-11T15:22:40.853Z,100887.67
2018-09-11T15:27:38.194Z,100892.39
2018-09-11T15:32:35.615Z,100889.24
2018-09-11T15:37:33.023Z,100884.40
2018-09-11T15:42:30.470Z,100893.77
2018-09-11T15:47:27.859Z,100891.16
2018-09-11T15:52:29.662Z,100891.45
2018-09-11T15:57:28.303Z,100879.16
2018-09-11T16:02:25.767Z,100877.63
2018-09-11T16:07:23.366Z,100864.02
2018-09-11T16:12:20.855Z,100867.26
2018-09-11T16:17:18.274Z,100865.03
2018-09-11T16:22:15.680Z,100861.56
2018-09-11T16:27:13.072Z,100858.05
2018-09-11T16:32:10.519Z,100860.98
2018-09-11T16:37:07.942Z,100848.64
2018-09-11T16:42:05.672Z,100845.75
2018-09-11T16:47:03.084Z,100846.03
2018-09-11T16:52:00.447Z,100846.23
2018-09-11T16:56:57.846Z,100842.29
2018-09-11T17:01:55.295Z,100835.88
2018-09-11T17:06:52.687Z,100834.11
2018-09-11T17:11:50.129Z,100841.97
2018-09-11T17:16:48.326Z,100833.10
2018-09-11T17:21:45.713Z,100826.47
2018-09-11T17:26:43.117Z,100831.10
2018-09-11T17:31:40.548Z,100833.56
2018-09-11T17:36:39.437Z,100836.55
2018-09-11T17:41:37.268Z,100837.94
2018-09-11T17:46:34.818Z,100845.27
2018-09-11T17:51:32.244Z,100852.31
2018-09-11T17:56:29.707Z,100855.02
2018-09-11T18:01:27.168Z,100860.95
2018-09-11T18:06:24.571Z,100858.33
2018-09-11T18:11:21.955Z,100870.14
2018-09-11T18:16:19.378Z,100868.05
2018-09-11T18:21:16.851Z,100875.55
2018-09-11T18:26:14.303Z,100876.37
2018-09-11T18:31:11.645Z,100887.93
2018-09-11T18:36:09.040Z,100879.83
2018-09-11T18:41:06.447Z,100891.08
2018-09-11T18:46:03.851Z,100896.23
2018-09-11T18:51:01.226Z,100903.16
2018-09-11T18:55:58.600Z,100908.28
2018-09-11T19:00:55.979Z,100916.28
2018-09-11T19:05:53.368Z,100917.44
2018-09-11T19:10:50.744Z,100912.27
2018-09-11T19:15:48.174Z,100917.05
2018-09-11T19:20:45.531Z,100920.11
2018-09-11T19:25:42.905Z,100922.42
2018-09-11T19:30:40.275Z,100920.42
2018-09-11T19:35:37.647Z,100920.07
2018-09-11T19:40:35.055Z,100917.88
2018-09-11T19:45:32.430Z,100918.73
2018-09-11T19:50:29.881Z,100916.30
2018-09-11T19:55:27.246Z,100918.73
2018-09-11T20:00:24.632Z,100913.97
2018-09-11T20:05:21.995Z,100903.73
2018-09-11T20:10:20.426Z,100907.64
2018-09-11T20:15:17.802Z,100904.50
2018-09-11T20:20:15.171Z,100901.77
2018-09-11T20:25:12.621Z,100893.80
2018-09-11T20:30:10.079Z,100896.34
2018-09-11T20:35:07.555Z,100900.84
2018-09-11T20:40:06.326Z,100894.68
2018-09-11T20:45:03.793Z,100893.59
2018-09-11T20:50:01.219Z,100896.98
2018-09-11T20:54:58.618Z,100897.14
2018-09-11T20:59:56.003Z,100898.22
2018-09-11T21:04:53.383Z,100905.11
2018-09-11T21:10:00.983Z,100896.59
2018-09-11T21:14:58.423Z,100896.02
2018-09-11T21:19:55.792Z,100895.19
2018-09-11T21:24:53.167Z,100886.56
2018-09-11T21:29:50.583Z,100890.48
2018-09-11T21:34:47.971Z,100884.18
2018-09-11T21:39:45.365Z,100890.27
2018-09-11T21:44:42.740Z,100885.39
2018-09-11T21:49:40.136Z,100888.12
2018-09-11T21:54:37.554Z,100889.19
2018-09-11T21:59:34.932Z,100890.98
2018-09-11T22:04:32.311Z,100897.29
2018-09-11T22:09:33.299Z,100894.62
2018-09-11T22:14:30.704Z,100895.90
2018-09-11T22:19:28.083Z,100903.38
2018-09-11T22:24:25.463Z,100904.19
2018-09-11T22:29:22.883Z,100903.09
2018-09-11T22:34:20.283Z,100902.09
2018-09-11T22:39:31.277Z,100908.27
2018-09-11T22:44:28.813Z,100909.89
2018-09-11T22:49:26.187Z,100902.31
2018-09-11T22:54:23.566Z,100902.66
2018-09-11T22:59:20.939Z,100902.95
2018-09-11T23:04:18.312Z,100907.69
2018-09-11T23:09:16.578Z,100909.78
2018-09-11T23:14:14.168Z,100906.45
2018-09-11T23:19:11.555Z,100898.58
2018-09-11T23:24:08.935Z,100900.03
2018-09-11T23:29:06.331Z,100902.70
2018-09-11T23:34:03.735Z,100902.78
2018-09-11T23:39:01.124Z,100901.05
2018-09-11T23:43:58.567Z,100898.35
2018-09-11T23:48:55.983Z,100894.67
2018-09-11T23:53:53.383Z,100893.78
2018-09-11T23:58:51.280Z,100897.86
